Time;durP1;ratioP1;P1;durP2;ratioP2;P2;SDS_P1;SDS_P2;PMS_P1;PMS_P2;Temp;Humidity;BMP_temperature;BMP_pressure;BME280_temperature;BME280_humidity;BME280_pressure;Samples;Min_cycle;Max_cycle;Signal;HPM_P1;HPM_P2
2023/12/24 00:01:12;;;;;;;0.70;0.40;;;7.80;99.90;;;;;;5071084;28;20417;-73
2023/12/24 00:03:38;;;;;;;1.13;0.60;;;7.80;99.90;;;;;;5069888;28;20438;-71
2023/12/24 00:06:04;;;;;;;0.93;0.60;;;7.80;99.90;;;;;;5070886;28;20776;-71
2023/12/24 00:08:31;;;;;;;1.10;0.40;;;7.80;99.90;;;;;;5070973;28;20194;-72
2023/12/24 00:10:57;;;;;;;0.70;0.40;;;7.80;99.90;;;;;;5071192;28;20428;-72
2023/12/24 00:13:23;;;;;;;0.70;0.40;;;7.80;99.90;;;;;;5071659;28;20422;-72
2023/12/24 00:15:49;;;;;;;1.13;0.40;;;7.80;99.90;;;;;;5070794;28;20463;-72
2023/12/24 00:18:15;;;;;;;0.80;0.50;;;7.90;99.90;;;;;;5070978;28;20433;-72
2023/12/24 00:20:40;;;;;;;0.80;0.50;;;7.90;99.90;;;;;;5070617;28;20187;-71
2023/12/24 00:23:07;;;;;;;1.10;0.40;;;7.80;99.90;;;;;;5070800;28;20195;-72
2023/12/24 00:25:35;;;;;;;0.80;0.50;;;7.90;99.90;;;;;;5070667;28;20194;-72
2023/12/24 00:28:00;;;;;;;0.70;0.40;;;7.90;99.90;;;;;;5069212;28;20593;-72
2023/12/24 00:30:27;;;;;;;5.90;1.03;;;7.90;99.90;;;;;;5070364;28;20512;-71
2023/12/24 00:32:56;;;;;;;0.70;0.40;;;7.80;99.90;;;;;;5070831;28;20669;-72
2023/12/24 00:35:22;;;;;;;0.70;0.40;;;7.90;99.90;;;;;;5070646;28;20603;-71
2023/12/24 00:37:49;;;;;;;1.00;0.40;;;7.80;99.90;;;;;;5071088;28;20430;-71
2023/12/24 00:40:15;;;;;;;1.00;0.40;;;7.80;99.90;;;;;;5070636;28;21041;-72
2023/12/24 00:42:41;;;;;;;1.27;0.47;;;7.80;99.90;;;;;;5052400;28;20421;-72
2023/12/24 00:45:08;;;;;;;0.70;0.40;;;7.80;99.90;;;;;;5070362;28;20451;-72
2023/12/24 00:47:34;;;;;;;0.80;0.50;;;7.80;99.90;;;;;;5070324;28;20537;-71
2023/12/24 00:49:59;;;;;;;0.80;0.40;;;7.80;99.90;;;;;;5068850;28;20801;-71
2023/12/24 00:52:25;;;;;;;0.90;0.40;;;7.80;99.90;;;;;;5052371;28;20794;-72
2023/12/24 00:54:51;;;;;;;0.60;0.40;;;7.80;99.90;;;;;;5069184;28;20215;-71
2023/12/24 00:57:16;;;;;;;0.70;0.40;;;7.80;99.90;;;;;;5070199;28;20858;-72
2023/12/24 00:59:42;;;;;;;2.50;0.40;;;7.80;99.90;;;;;;5070452;28;20232;-72
2023/12/24 01:02:07;;;;;;;0.70;0.40;;;7.80;99.90;;;;;;5069540;28;20863;-72
2023/12/24 01:04:33;;;;;;;1.43;0.40;;;7.80;99.90;;;;;;5070052;28;20175;-72
2023/12/24 01:06:59;;;;;;;0.80;0.40;;;7.80;99.90;;;;;;5068460;28;20207;-72
2023/12/24 01:09:25;;;;;;;0.70;0.40;;;7.80;99.90;;;;;;5070159;28;20177;-72
2023/12/24 01:11:52;;;;;;;0.70;0.40;;;7.80;99.90;;;;;;5068330;28;20413;-72
2023/12/24 01:14:17;;;;;;;1.13;0.50;;;7.90;99.90;;;;;;5069804;28;20182;-72
2023/12/24 01:16:43;;;;;;;0.83;0.50;;;7.80;99.90;;;;;;5069085;28;20445;-72
2023/12/24 01:19:09;;;;;;;0.80;0.40;;;7.80;99.90;;;;;;5069658;28;20191;-72
2023/12/24 01:21:34;;;;;;;0.60;0.30;;;7.90;99.90;;;;;;5069801;28;20187;-70
2023/12/24 01:24:00;;;;;;;0.70;0.40;;;7.90;99.90;;;;;;5069671;28;20210;-72
2023/12/24 01:26:25;;;;;;;0.70;0.40;;;7.90;99.90;;;;;;5069241;28;20226;-73
2023/12/24 01:28:51;;;;;;;0.80;0.47;;;7.90;99.90;;;;;;5069445;28;20189;-72
2023/12/24 01:31:16;;;;;;;0.67;0.40;;;7.90;99.90;;;;;;5069291;28;20269;-72
2023/12/24 01:33:42;;;;;;;0.70;0.40;;;7.90;99.90;;;;;;5069334;28;20187;-72
2023/12/24 01:36:09;;;;;;;0.90;0.60;;;7.90;99.90;;;;;;5069398;28;20843;-71
2023/12/24 01:38:35;;;;;;;0.80;0.60;;;7.90;99.90;;;;;;5067528;28;20651;-72
2023/12/24 01:41:01;;;;;;;1.33;0.47;;;7.90;99.90;;;;;;5069259;28;20504;-72
2023/12/24 01:43:26;;;;;;;0.80;0.50;;;7.90;99.90;;;;;;5067883;28;20187;-70
2023/12/24 01:45:52;;;;;;;0.83;0.40;;;7.90;99.90;;;;;;5067849;28;20229;-72
2023/12/24 01:48:20;;;;;;;0.70;0.40;;;8.00;99.90;;;;;;5069309;28;20192;-72
2023/12/24 01:50:47;;;;;;;2.80;0.60;;;8.00;99.90;;;;;;5069061;28;20179;-71
2023/12/24 01:53:15;;;;;;;0.77;0.43;;;7.90;99.90;;;;;;5069331;28;20461;-73
2023/12/24 01:55:41;;;;;;;0.87;0.40;;;8.00;99.90;;;;;;5069042;28;20900;-71
2023/12/24 01:58:07;;;;;;;0.70;0.60;;;8.00;99.90;;;;;;5067761;28;20491;-73
2023/12/24 02:00:33;;;;;;;1.03;0.40;;;8.00;99.90;;;;;;5067515;28;20430;-73
2023/12/24 02:03:00;;;;;;;1.60;0.70;;;8.00;99.90;;;;;;5068812;28;20190;-72
2023/12/24 02:05:27;;;;;;;0.70;0.40;;;7.90;99.90;;;;;;5067465;28;20226;-72
2023/12/24 02:07:55;;;;;;;0.87;0.50;;;8.00;99.90;;;;;;5067646;28;20440;-72
2023/12/24 02:10:20;;;;;;;0.90;0.50;;;8.00;99.90;;;;;;5068939;28;20899;-72
2023/12/24 02:12:46;;;;;;;1.50;0.53;;;8.00;99.90;;;;;;5069101;28;20425;-72
2023/12/24 02:15:12;;;;;;;0.70;0.50;;;8.00;99.90;;;;;;5067442;28;20215;-72
2023/12/24 02:17:39;;;;;;;0.70;0.40;;;8.00;99.90;;;;;;5067515;28;20524;-72
2023/12/24 02:20:05;;;;;;;0.70;0.40;;;8.00;99.90;;;;;;5069055;28;20254;-71
2023/12/24 02:22:31;;;;;;;0.83;0.40;;;8.00;99.90;;;;;;5069297;28;20937;-71
2023/12/24 02:24:57;;;;;;;0.73;0.43;;;8.00;99.90;;;;;;5067741;28;20449;-72
2023/12/24 02:27:31;;;;;;;2.20;0.50;;;8.00;99.90;;;;;;5068457;28;20645;-72
2023/12/24 02:30:04;;;;;;;0.90;0.40;;;8.00;99.90;;;;;;5069340;28;20182;-72
2023/12/24 02:32:33;;;;;;;0.80;0.50;;;8.00;99.90;;;;;;5067938;28;20426;-73
2023/12/24 02:35:01;;;;;;;0.77;0.47;;;8.00;99.90;;;;;;5067886;28;20468;-71
2023/12/24 02:37:28;;;;;;;0.70;0.40;;;8.00;99.90;;;;;;5067919;28;20445;-72
2023/12/24 02:39:53;;;;;;;0.70;0.50;;;8.00;99.90;;;;;;5068976;28;20417;-72
2023/12/24 02:42:19;;;;;;;1.53;0.50;;;8.00;99.90;;;;;;5068971;28;20417;-72
2023/12/24 02:44:44;;;;;;;2.20;0.50;;;8.00;99.90;;;;;;5068793;28;20192;-72
2023/12/24 02:47:10;;;;;;;0.90;0.50;;;8.10;99.90;;;;;;5067192;28;20214;-71
2023/12/24 02:49:35;;;;;;;1.60;0.60;;;8.00;99.90;;;;;;5051836;28;20259;-71
2023/12/24 02:52:01;;;;;;;0.80;0.50;;;8.00;99.90;;;;;;5068742;28;20187;-70
2023/12/24 02:54:27;;;;;;;0.70;0.40;;;8.00;99.90;;;;;;5067206;28;20183;-72
2023/12/24 02:56:52;;;;;;;0.97;0.50;;;8.00;99.90;;;;;;5066921;28;20746;-72
2023/12/24 02:59:18;;;;;;;1.10;0.50;;;8.10;99.90;;;;;;5068492;28;20242;-71
2023/12/24 03:01:44;;;;;;;1.20;0.50;;;8.00;99.90;;;;;;5066893;28;20206;-72
2023/12/24 03:04:09;;;;;;;0.80;0.50;;;8.00;99.90;;;;;;5068431;28;20287;-72
2023/12/24 03:06:35;;;;;;;0.70;0.47;;;8.00;99.90;;;;;;5066863;28;20724;-72
2023/12/24 03:09:00;;;;;;;1.30;0.50;;;8.00;99.90;;;;;;5068441;28;20274;-72
2023/12/24 03:11:27;;;;;;;0.70;0.50;;;8.00;99.90;;;;;;5066819;28;20190;-71
2023/12/24 03:13:52;;;;;;;0.70;0.40;;;8.00;99.90;;;;;;5066664;28;20245;-72
2023/12/24 03:16:18;;;;;;;0.70;0.40;;;8.00;99.90;;;;;;5068104;28;20501;-72
2023/12/24 03:18:44;;;;;;;0.70;0.47;;;8.10;99.90;;;;;;5068010;28;20552;-73
2023/12/24 03:21:09;;;;;;;2.23;0.53;;;8.10;99.90;;;;;;5066798;28;20189;-72
2023/12/24 03:23:35;;;;;;;1.10;0.83;;;8.10;99.90;;;;;;5068172;28;20175;-72
2023/12/24 03:26:00;;;;;;;1.10;0.50;;;8.10;99.90;;;;;;5049908;28;20208;-72
2023/12/24 03:28:26;;;;;;;0.80;0.50;;;8.10;99.90;;;;;;5068160;28;20633;-72
2023/12/24 03:30:52;;;;;;;0.70;0.40;;;8.10;99.90;;;;;;5068032;28;20196;-72
2023/12/24 03:33:17;;;;;;;1.10;0.60;;;8.00;99.90;;;;;;5068094;28;20187;-72
2023/12/24 03:35:43;;;;;;;0.80;0.63;;;8.00;99.90;;;;;;5067863;28;20218;-71
2023/12/24 03:38:09;;;;;;;0.70;0.50;;;8.00;99.90;;;;;;5068229;28;20195;-72
2023/12/24 03:40:34;;;;;;;0.73;0.63;;;8.10;99.90;;;;;;5071729;28;20429;-72
2023/12/24 03:43:00;;;;;;;0.77;0.60;;;8.00;99.90;;;;;;5071506;28;20190;-72
2023/12/24 03:45:26;;;;;;;0.70;0.40;;;8.10;99.90;;;;;;5070541;28;20732;-72
2023/12/24 03:47:51;;;;;;;0.90;0.70;;;8.10;99.90;;;;;;5072173;28;20203;-72
2023/12/24 03:50:17;;;;;;;0.70;0.50;;;8.10;99.90;;;;;;5070996;28;20202;-73
2023/12/24 03:52:43;;;;;;;1.07;0.40;;;8.10;99.90;;;;;;5071944;28;20752;-73
2023/12/24 03:55:09;;;;;;;0.97;0.53;;;8.10;99.90;;;;;;5071896;28;20219;-72
2023/12/24 03:57:34;;;;;;;0.70;0.50;;;8.10;99.90;;;;;;5070582;28;21014;-73
2023/12/24 04:00:00;;;;;;;4.10;0.60;;;8.10;99.90;;;;;;5071838;28;20184;-71
2023/12/24 04:02:26;;;;;;;0.70;0.47;;;8.10;99.90;;;;;;5071637;28;20184;-71
2023/12/24 04:04:52;;;;;;;0.70;0.50;;;8.10;99.90;;;;;;5070282;28;20187;-73
2023/12/24 04:07:17;;;;;;;1.00;0.60;;;8.00;99.90;;;;;;5069942;28;20528;-72
2023/12/24 04:09:43;;;;;;;1.00;0.60;;;8.00;99.90;;;;;;5070049;28;21042;-72
2023/12/24 04:12:09;;;;;;;0.80;0.50;;;8.00;99.90;;;;;;5070971;28;20183;-72
2023/12/24 04:14:39;;;;;;;0.80;0.60;;;8.10;99.90;;;;;;5071644;28;20191;-72
2023/12/24 04:17:05;;;;;;;1.70;0.60;;;8.00;99.90;;;;;;5071205;28;20509;-72
2023/12/24 04:19:31;;;;;;;0.90;0.40;;;8.00;99.90;;;;;;5053307;28;20456;-72
2023/12/24 04:21:56;;;;;;;0.83;0.47;;;8.00;99.90;;;;;;5069994;28;21094;-72
2023/12/24 04:24:22;;;;;;;1.13;0.60;;;8.00;99.90;;;;;;5071210;28;20538;-72
2023/12/24 04:26:48;;;;;;;1.20;0.50;;;8.00;99.90;;;;;;5069344;28;20246;-73
2023/12/24 04:29:13;;;;;;;0.90;0.60;;;8.00;99.90;;;;;;5070702;28;20191;-72
2023/12/24 04:31:39;;;;;;;0.87;0.57;;;8.00;99.90;;;;;;5069365;28;20230;-72
2023/12/24 04:34:08;;;;;;;2.17;0.47;;;8.00;99.90;;;;;;5071254;28;20175;-72
2023/12/24 04:36:34;;;;;;;0.70;0.50;;;8.00;99.90;;;;;;5072165;28;20506;-72
2023/12/24 04:39:01;;;;;;;0.70;0.50;;;8.00;99.90;;;;;;5071011;28;20483;-73
2023/12/24 04:41:28;;;;;;;0.90;0.60;;;8.00;99.90;;;;;;5071670;28;20471;-73
2023/12/24 04:43:54;;;;;;;0.80;0.53;;;8.00;99.90;;;;;;5071039;28;20425;-72
2023/12/24 04:46:19;;;;;;;0.70;0.50;;;8.00;99.90;;;;;;5068969;28;20451;-73
2023/12/24 04:48:45;;;;;;;1.07;0.53;;;8.00;99.90;;;;;;5069219;28;20796;-72
2023/12/24 04:51:11;;;;;;;0.80;0.50;;;8.00;99.90;;;;;;5069549;28;20195;-72
2023/12/24 04:53:37;;;;;;;1.43;0.67;;;8.00;99.90;;;;;;5068989;28;20198;-72
2023/12/24 04:56:03;;;;;;;0.80;0.50;;;8.00;99.90;;;;;;5070093;28;20465;-71
2023/12/24 04:58:29;;;;;;;2.40;0.70;;;8.00;99.90;;;;;;5068837;28;20570;-72
2023/12/24 05:00:54;;;;;;;1.23;0.90;;;8.00;99.90;;;;;;5070329;28;20428;-72
2023/12/24 05:03:20;;;;;;;0.90;0.60;;;8.00;99.90;;;;;;5070563;28;20221;-72
2023/12/24 05:05:46;;;;;;;0.70;0.50;;;8.10;99.90;;;;;;5070009;28;20458;-73
2023/12/24 05:08:11;;;;;;;0.70;0.53;;;8.10;99.90;;;;;;5069913;28;20207;-71
2023/12/24 05:10:37;;;;;;;1.10;0.90;;;8.00;99.90;;;;;;5069861;28;20319;-72
2023/12/24 05:13:02;;;;;;;1.53;0.70;;;8.00;99.90;;;;;;5068332;28;20309;-72
2023/12/24 05:15:28;;;;;;;0.80;0.60;;;8.00;99.90;;;;;;5068431;28;20218;-71
2023/12/24 05:17:54;;;;;;;0.90;0.50;;;8.00;99.90;;;;;;5069790;28;20854;-72
2023/12/24 05:20:19;;;;;;;1.07;0.50;;;8.10;99.90;;;;;;5068493;28;20275;-71
2023/12/24 05:22:45;;;;;;;1.37;0.50;;;8.00;99.90;;;;;;5069717;28;20187;-72
2023/12/24 05:25:11;;;;;;;0.80;0.60;;;8.00;99.90;;;;;;5069537;28;20722;-72
2023/12/24 05:27:38;;;;;;;2.70;0.70;;;8.10;99.90;;;;;;5067816;28;20544;-71
2023/12/24 05:30:05;;;;;;;0.70;0.47;;;8.10;99.90;;;;;;5069327;28;20180;-71
2023/12/24 05:32:31;;;;;;;0.70;0.50;;;8.10;99.90;;;;;;5067652;28;20986;-73
2023/12/24 05:34:56;;;;;;;0.70;0.50;;;8.10;99.90;;;;;;5067834;28;20461;-72
2023/12/24 05:37:22;;;;;;;1.27;0.50;;;8.10;99.90;;;;;;5051332;28;20385;-72
2023/12/24 05:39:47;;;;;;;0.80;0.60;;;8.10;99.90;;;;;;5069428;28;20190;-72
2023/12/24 05:42:13;;;;;;;1.10;0.60;;;8.10;99.90;;;;;;5069152;28;20278;-72
2023/12/24 05:44:39;;;;;;;0.90;0.57;;;8.10;99.90;;;;;;5067752;28;20207;-72
2023/12/24 05:47:05;;;;;;;0.67;0.40;;;8.10;99.90;;;;;;5067927;28;20897;-70
2023/12/24 05:49:31;;;;;;;1.13;0.70;;;8.10;99.90;;;;;;5069275;28;20425;-72
2023/12/24 05:51:56;;;;;;;2.47;0.63;;;8.10;99.90;;;;;;5069212;28;20191;-72
2023/12/24 05:54:22;;;;;;;0.90;0.47;;;8.10;99.90;;;;;;5050818;28;20663;-72
2023/12/24 05:56:47;;;;;;;0.80;0.50;;;8.10;99.90;;;;;;5067616;28;20211;-71
2023/12/24 05:59:13;;;;;;;1.10;0.50;;;8.20;99.90;;;;;;5069111;28;20184;-71
2023/12/24 06:01:39;;;;;;;1.33;0.50;;;8.20;99.90;;;;;;5068995;28;20576;-72
2023/12/24 06:04:05;;;;;;;0.80;0.60;;;8.20;99.90;;;;;;5067462;28;20272;-72
2023/12/24 06:06:31;;;;;;;0.70;0.50;;;8.30;99.90;;;;;;5067407;28;20268;-72
2023/12/24 06:08:56;;;;;;;0.80;0.50;;;8.30;99.90;;;;;;5068712;28;20437;-71
2023/12/24 06:11:22;;;;;;;1.00;0.50;;;8.30;99.90;;;;;;5067310;28;20184;-72
2023/12/24 06:13:47;;;;;;;1.47;0.40;;;8.30;99.90;;;;;;5068750;28;20261;-72
2023/12/24 06:16:13;;;;;;;0.70;0.40;;;8.30;99.90;;;;;;5068861;28;20727;-71
2023/12/24 06:18:40;;;;;;;0.70;0.50;;;8.40;99.90;;;;;;5050736;28;20278;-72
2023/12/24 06:21:08;;;;;;;0.93;0.60;;;8.40;99.90;;;;;;5068835;28;20171;-72
2023/12/24 06:23:34;;;;;;;0.87;0.50;;;8.40;99.90;;;;;;5067326;28;20430;-71
2023/12/24 06:25:59;;;;;;;0.87;0.50;;;8.40;99.90;;;;;;5068828;28;20836;-73
2023/12/24 06:28:25;;;;;;;2.03;0.50;;;8.40;99.90;;;;;;5067121;28;20822;-71
2023/12/24 06:30:50;;;;;;;0.90;0.57;;;8.40;99.90;;;;;;5068558;28;20613;-72
2023/12/24 06:33:16;;;;;;;0.70;0.50;;;8.40;99.90;;;;;;5067404;28;20187;-72
2023/12/24 06:35:41;;;;;;;3.17;0.50;;;8.40;99.90;;;;;;5067335;28;20218;-72
2023/12/24 06:38:07;;;;;;;0.70;0.50;;;8.40;99.90;;;;;;5067303;28;20301;-72
2023/12/24 06:40:34;;;;;;;1.00;0.60;;;8.40;99.90;;;;;;5067475;28;20191;-72
2023/12/24 06:42:59;;;;;;;1.67;0.50;;;8.40;99.90;;;;;;5066879;28;20190;-72
2023/12/24 06:45:25;;;;;;;2.30;0.50;;;8.40;99.90;;;;;;5068648;28;20429;-71
2023/12/24 06:47:50;;;;;;;0.67;0.43;;;8.40;99.90;;;;;;5068271;28;20268;-72
2023/12/24 06:50:17;;;;;;;2.03;0.90;;;8.40;99.90;;;;;;5067051;28;20244;-73
2023/12/24 06:52:43;;;;;;;0.73;0.50;;;8.40;99.90;;;;;;5068725;28;20183;-71
2023/12/24 06:55:09;;;;;;;1.23;0.60;;;8.40;99.90;;;;;;5066875;28;20469;-72
2023/12/24 06:57:34;;;;;;;0.97;0.50;;;8.50;99.90;;;;;;5068287;28;20203;-71
2023/12/24 07:00:00;;;;;;;0.73;0.50;;;8.50;99.90;;;;;;5068235;28;20191;-71
2023/12/24 07:02:25;;;;;;;0.70;0.40;;;8.50;99.90;;;;;;5067063;28;20194;-71
2023/12/24 07:04:51;;;;;;;1.20;0.50;;;8.50;99.90;;;;;;5068341;28;20228;-71
2023/12/24 07:07:16;;;;;;;0.70;0.47;;;8.50;99.90;;;;;;5068194;28;21028;-72
2023/12/24 07:09:43;;;;;;;0.80;0.60;;;8.60;99.90;;;;;;5066893;28;20306;-71
2023/12/24 07:12:09;;;;;;;0.70;0.40;;;8.60;99.90;;;;;;5068254;28;20663;-71
2023/12/24 07:14:34;;;;;;;0.70;0.40;;;8.50;99.90;;;;;;5070043;28;20198;-73
2023/12/24 07:17:00;;;;;;;0.70;0.40;;;8.60;99.90;;;;;;5072100;28;20203;-73
2023/12/24 07:19:25;;;;;;;0.70;0.50;;;8.60;99.90;;;;;;5072023;28;20730;-73
2023/12/24 07:21:51;;;;;;;1.77;0.40;;;8.60;99.90;;;;;;5053596;28;20289;-73
2023/12/24 07:24:16;;;;;;;0.70;0.40;;;8.60;99.90;;;;;;5072021;28;20195;-73
2023/12/24 07:26:42;;;;;;;0.70;0.40;;;8.70;99.90;;;;;;5070405;28;20605;-73
2023/12/24 07:29:08;;;;;;;0.60;0.33;;;8.70;99.90;;;;;;5070311;28;20222;-71
2023/12/24 07:31:33;;;;;;;0.60;0.37;;;8.70;99.90;;;;;;5071687;28;20188;-71
2023/12/24 07:33:59;;;;;;;0.67;0.37;;;8.70;99.90;;;;;;5071958;28;20290;-72
2023/12/24 07:36:24;;;;;;;0.90;0.40;;;8.80;99.90;;;;;;5071757;28;20673;-72
2023/12/24 07:38:50;;;;;;;0.60;0.40;;;8.80;99.90;;;;;;5070456;28;20195;-72
2023/12/24 07:41:16;;;;;;;0.60;0.40;;;8.90;99.90;;;;;;5071618;28;20190;-71
2023/12/24 07:43:42;;;;;;;0.70;0.40;;;8.90;99.90;;;;;;5053540;28;20248;-71
2023/12/24 07:46:08;;;;;;;1.37;0.50;;;8.90;99.90;;;;;;5071242;28;20416;-72
2023/12/24 07:48:34;;;;;;;1.43;0.40;;;8.90;99.90;;;;;;5071697;28;20225;-73
2023/12/24 07:50:59;;;;;;;0.70;0.50;;;9.00;99.90;;;;;;5070226;28;21011;-72
2023/12/24 07:53:25;;;;;;;0.70;0.30;;;9.00;99.90;;;;;;5070789;28;20238;-72
2023/12/24 07:55:51;;;;;;;0.60;0.30;;;9.10;99.90;;;;;;5071527;28;20207;-72
2023/12/24 07:58:16;;;;;;;0.70;0.33;;;9.10;99.90;;;;;;5071707;28;20185;-72
2023/12/24 08:00:42;;;;;;;0.70;0.30;;;9.10;99.90;;;;;;5070241;28;20548;-72
2023/12/24 08:03:07;;;;;;;0.70;0.40;;;9.20;99.90;;;;;;5070386;28;20221;-72
2023/12/24 08:05:33;;;;;;;4.37;0.50;;;9.20;99.90;;;;;;5070510;28;20194;-72
2023/12/24 08:07:59;;;;;;;0.70;0.50;;;9.20;99.90;;;;;;5070127;28;20210;-72
2023/12/24 08:10:24;;;;;;;0.70;0.40;;;9.30;99.90;;;;;;5070295;28;20272;-69
2023/12/24 08:12:50;;;;;;;1.27;0.40;;;9.30;99.90;;;;;;5070015;28;20677;-72
2023/12/24 08:15:17;;;;;;;0.70;0.33;;;9.30;99.90;;;;;;5070988;28;20601;-71
2023/12/24 08:17:42;;;;;;;0.60;0.30;;;9.30;99.90;;;;;;5052875;28;20204;-73
2023/12/24 08:20:09;;;;;;;0.70;0.40;;;9.30;99.90;;;;;;5071032;28;20420;-70
2023/12/24 08:22:36;;;;;;;0.70;0.37;;;9.30;99.90;;;;;;5069607;28;20268;-71
2023/12/24 08:25:02;;;;;;;0.60;0.30;;;9.40;99.90;;;;;;5069800;28;20786;-72
2023/12/24 08:27:27;;;;;;;0.60;0.30;;;9.40;99.90;;;;;;5070819;28;20514;-72
2023/12/24 08:29:55;;;;;;;0.60;0.40;;;9.40;99.90;;;;;;5070551;28;20190;-71
2023/12/24 08:32:21;;;;;;;2.30;0.43;;;9.30;99.90;;;;;;5070592;28;20570;-71
2023/12/24 08:34:47;;;;;;;0.70;0.30;;;9.40;99.90;;;;;;5068692;28;20471;-71
2023/12/24 08:37:12;;;;;;;0.70;0.40;;;9.40;99.90;;;;;;5070598;28;20437;-72
2023/12/24 08:39:38;;;;;;;0.60;0.30;;;9.40;99.90;;;;;;5071004;28;20645;-71
2023/12/24 08:42:04;;;;;;;0.60;0.30;;;9.40;99.90;;;;;;5070778;28;20194;-70
2023/12/24 08:44:30;;;;;;;0.60;0.30;;;9.40;99.90;;;;;;5070617;28;20220;-70
2023/12/24 08:46:55;;;;;;;0.67;0.33;;;9.40;99.90;;;;;;5070357;28;20437;-72
2023/12/24 08:49:23;;;;;;;2.10;0.40;;;9.40;99.90;;;;;;5052422;28;20728;-69
2023/12/24 08:51:49;;;;;;;0.60;0.30;;;9.40;99.90;;;;;;5070375;28;20175;-70
2023/12/24 08:54:14;;;;;;;0.60;0.40;;;9.40;99.90;;;;;;5068668;28;20976;-70
2023/12/24 08:56:40;;;;;;;0.70;0.30;;;9.50;99.90;;;;;;5068712;28;20322;-72
2023/12/24 08:59:07;;;;;;;0.70;0.40;;;9.40;99.90;;;;;;5068388;28;20187;-71
2023/12/24 09:01:33;;;;;;;0.90;0.40;;;9.40;99.90;;;;;;5069033;28;20211;-72
2023/12/24 09:03:59;;;;;;;0.70;0.40;;;9.40;99.90;;;;;;5067191;28;21004;-71
2023/12/24 09:06:24;;;;;;;0.60;0.30;;;9.40;99.90;;;;;;5068781;28;20219;-72
2023/12/24 09:08:50;;;;;;;3.43;0.53;;;9.40;99.90;;;;;;5067623;28;21096;-72
2023/12/24 09:11:16;;;;;;;0.70;0.30;;;9.30;99.90;;;;;;5068862;28;20273;-72
2023/12/24 09:13:41;;;;;;;0.60;0.40;;;9.40;99.90;;;;;;5068512;28;20191;-72
2023/12/24 09:16:07;;;;;;;0.70;0.40;;;9.40;99.90;;;;;;5068373;28;20223;-72
2023/12/24 09:18:33;;;;;;;0.73;0.40;;;9.40;99.90;;;;;;5068648;28;20202;-72
2023/12/24 09:20:58;;;;;;;0.70;0.40;;;9.60;99.90;;;;;;5068452;28;21011;-72
2023/12/24 09:23:24;;;;;;;0.80;0.50;;;9.50;99.90;;;;;;5067279;28;20672;-72
2023/12/24 09:25:50;;;;;;;0.60;0.30;;;9.50;99.90;;;;;;5066885;28;20259;-73
2023/12/24 09:28:15;;;;;;;0.80;0.57;;;9.50;99.90;;;;;;5068443;28;20274;-73
2023/12/24 09:30:41;;;;;;;0.60;0.30;;;9.50;99.90;;;;;;5068888;28;20251;-73
2023/12/24 09:33:07;;;;;;;0.60;0.30;;;9.60;99.90;;;;;;5066795;28;20199;-73
2023/12/24 09:35:32;;;;;;;0.80;0.40;;;9.60;99.90;;;;;;5068285;28;20217;-72
2023/12/24 09:37:58;;;;;;;2.20;0.50;;;9.60;99.90;;;;;;5066513;28;20207;-72
2023/12/24 09:40:23;;;;;;;0.60;0.40;;;9.60;99.90;;;;;;5068175;28;20356;-71
2023/12/24 09:42:50;;;;;;;0.80;0.43;;;9.60;99.90;;;;;;5050328;28;20894;-70
2023/12/24 09:45:15;;;;;;;0.70;0.40;;;9.60;99.90;;;;;;5068156;28;20649;-72
2023/12/24 09:47:41;;;;;;;0.80;0.50;;;9.60;99.90;;;;;;5066888;28;20437;-72
2023/12/24 09:50:07;;;;;;;1.30;0.47;;;9.60;99.90;;;;;;5068105;28;20190;-72
2023/12/24 09:52:34;;;;;;;0.70;0.40;;;9.70;99.90;;;;;;5067076;28;20641;-72
2023/12/24 09:55:01;;;;;;;0.80;0.40;;;9.70;99.90;;;;;;5049888;28;20468;-73
2023/12/24 09:57:26;;;;;;;0.80;0.40;;;9.80;99.90;;;;;;5066134;28;20441;-72
2023/12/24 09:59:52;;;;;;;0.70;0.57;;;9.80;99.90;;;;;;5066366;28;20467;-72
2023/12/24 10:02:18;;;;;;;7.70;0.40;;;9.80;99.90;;;;;;5066676;28;20960;-72
2023/12/24 10:04:43;;;;;;;0.70;0.40;;;9.90;99.90;;;;;;5067891;28;20176;-72
2023/12/24 10:07:09;;;;;;;0.70;0.40;;;10.00;99.90;;;;;;5066843;28;20199;-72
2023/12/24 10:09:49;;;;;;;0.70;0.40;;;9.90;99.90;;;;;;5068256;28;20179;-73
2023/12/24 10:12:14;;;;;;;0.70;0.40;;;9.90;99.90;;;;;;5068470;28;20860;-73
2023/12/24 10:14:43;;;;;;;1.60;0.57;;;9.90;99.90;;;;;;5068375;28;20501;-72
2023/12/24 10:17:09;;;;;;;1.47;0.40;;;10.00;99.90;;;;;;5067149;28;20434;-73
2023/12/24 10:19:34;;;;;;;0.70;0.40;;;10.00;99.90;;;;;;5068477;28;20427;-73
2023/12/24 10:22:07;;;;;;;0.70;0.40;;;10.00;99.90;;;;;;5066592;28;20287;-72
2023/12/24 10:24:40;;;;;;;0.70;0.50;;;9.90;99.90;;;;;;5049463;28;20190;-72
2023/12/24 10:27:11;;;;;;;0.70;0.40;;;9.90;99.90;;;;;;5067421;28;20474;-72
2023/12/24 10:29:38;;;;;;;0.70;0.40;;;9.90;99.90;;;;;;5068016;28;20785;-72
2023/12/24 10:32:04;;;;;;;1.37;0.40;;;9.90;99.90;;;;;;5067772;28;20414;-72
2023/12/24 10:34:32;;;;;;;2.43;0.40;;;9.90;99.90;;;;;;5067820;28;20420;-72
2023/12/24 10:36:59;;;;;;;0.70;0.40;;;9.90;99.90;;;;;;5067739;28;20440;-73
2023/12/24 10:39:26;;;;;;;0.90;0.43;;;9.90;99.90;;;;;;5066076;28;20475;-72
2023/12/24 10:41:58;;;;;;;0.70;0.40;;;9.90;99.90;;;;;;5067385;28;20805;-70
2023/12/24 10:44:24;;;;;;;0.70;0.40;;;10.00;99.90;;;;;;5067590;28;20424;-71
2023/12/24 10:46:50;;;;;;;0.70;0.50;;;10.00;99.90;;;;;;5067465;28;20534;-72
2023/12/24 10:49:16;;;;;;;0.70;0.40;;;10.00;99.90;;;;;;5069705;28;20179;-72
2023/12/24 10:51:42;;;;;;;0.80;0.40;;;10.00;99.90;;;;;;5071366;28;20491;-72
2023/12/24 10:54:08;;;;;;;0.70;0.40;;;10.00;99.90;;;;;;5070446;28;20197;-72
2023/12/24 10:56:58;;;;;;;0.80;0.50;;;10.00;99.90;;;;;;5071200;28;20484;-71
2023/12/24 10:59:56;;;;;;;1.23;0.50;;;10.10;99.90;;;;;;5069728;28;20931;-71
2023/12/24 11:02:22;;;;;;;1.47;0.50;;;10.10;99.90;;;;;;5067615;28;20429;-71
2023/12/24 11:04:49;;;;;;;0.70;0.43;;;10.10;99.90;;;;;;5071120;28;20528;-71
2023/12/24 11:07:33;;;;;;;0.70;0.40;;;10.10;99.90;;;;;;5069532;28;20441;-72
2023/12/24 11:10:05;;;;;;;0.70;0.43;;;10.10;99.90;;;;;;5070990;28;20483;-72
2023/12/24 11:12:32;;;;;;;0.97;0.50;;;10.00;99.90;;;;;;5071088;28;20459;-72
2023/12/24 11:14:59;;;;;;;2.10;0.57;;;10.00;99.90;;;;;;5071027;28;20472;-72
2023/12/24 11:17:37;;;;;;;0.73;0.47;;;10.00;99.90;;;;;;5070906;28;20444;-72
2023/12/24 11:20:18;;;;;;;0.80;0.50;;;10.00;99.90;;;;;;5069404;28;20418;-72
2023/12/24 11:23:10;;;;;;;0.70;0.50;;;10.00;99.90;;;;;;5070826;28;20417;-71
2023/12/24 11:25:45;;;;;;;0.70;0.40;;;10.10;99.90;;;;;;5070970;28;20913;-72
2023/12/24 11:28:24;;;;;;;0.70;0.40;;;10.10;99.90;;;;;;5071074;28;20956;-72
2023/12/24 11:30:50;;;;;;;0.70;0.40;;;10.10;99.90;;;;;;5071170;28;20785;-72
2023/12/24 11:33:34;;;;;;;0.67;0.40;;;10.20;99.90;;;;;;5069504;28;20430;-72
2023/12/24 11:36:02;;;;;;;1.87;0.50;;;10.20;99.90;;;;;;5069069;28;20209;-72
2023/12/24 11:38:33;;;;;;;0.80;0.50;;;10.20;99.90;;;;;;5071031;28;20421;-72
2023/12/24 11:41:06;;;;;;;0.70;0.40;;;10.30;99.90;;;;;;5068946;28;20422;-72
2023/12/24 11:43:32;;;;;;;0.70;0.40;;;10.30;99.90;;;;;;5071556;28;20415;-71
2023/12/24 11:45:58;;;;;;;0.80;0.50;;;10.40;99.90;;;;;;5069005;28;20421;-72
2023/12/24 11:48:28;;;;;;;0.70;0.40;;;10.40;99.90;;;;;;5069001;28;20512;-70
2023/12/24 11:51:07;;;;;;;0.70;0.40;;;10.40;99.90;;;;;;5068956;28;20603;-71
2023/12/24 11:53:35;;;;;;;2.30;0.50;;;10.40;99.90;;;;;;5070588;28;20410;-72
2023/12/24 11:56:13;;;;;;;0.70;0.40;;;10.40;99.90;;;;;;5069108;28;20500;-72
2023/12/24 11:59:00;;;;;;;2.00;0.50;;;10.50;99.90;;;;;;5071439;28;21250;-72
2023/12/24 12:01:30;;;;;;;1.00;0.50;;;10.40;99.90;;;;;;5070041;28;20413;-72
2023/12/24 12:04:00;;;;;;;0.80;0.60;;;10.40;99.90;;;;;;5071413;28;20417;-72
2023/12/24 12:06:27;;;;;;;0.80;0.50;;;10.40;99.90;;;;;;5069889;28;20526;-72
2023/12/24 12:08:53;;;;;;;1.33;0.60;;;10.40;99.90;;;;;;5069650;28;20463;-73
2023/12/24 12:11:19;;;;;;;0.70;0.40;;;10.40;99.90;;;;;;5071130;28;20433;-72
2023/12/24 12:13:46;;;;;;;0.90;0.70;;;10.50;99.90;;;;;;5069071;28;20417;-72
2023/12/24 12:16:11;;;;;;;0.70;0.50;;;10.50;99.90;;;;;;5070180;28;20981;-72
2023/12/24 12:18:37;;;;;;;0.80;0.50;;;10.50;99.90;;;;;;5069476;28;20430;-72
2023/12/24 12:21:02;;;;;;;0.70;0.40;;;10.50;99.90;;;;;;5068500;28;20180;-71
2023/12/24 12:23:28;;;;;;;0.83;0.50;;;10.50;99.90;;;;;;5068705;28;20208;-72
2023/12/24 12:25:54;;;;;;;0.80;0.50;;;10.50;99.90;;;;;;5051513;28;20195;-71
2023/12/24 12:28:19;;;;;;;0.70;0.40;;;10.50;99.90;;;;;;5070401;28;20678;-72
2023/12/24 12:30:45;;;;;;;0.70;0.40;;;10.50;99.90;;;;;;5053568;28;20192;-71
2023/12/24 12:33:12;;;;;;;0.80;0.50;;;10.60;99.90;;;;;;5068605;28;20179;-72
2023/12/24 12:35:37;;;;;;;1.70;0.50;;;10.60;99.90;;;;;;5068096;28;21239;-71
2023/12/24 12:38:03;;;;;;;0.90;0.50;;;10.60;99.90;;;;;;5069499;28;20526;-72
2023/12/24 12:40:29;;;;;;;0.80;0.60;;;10.50;99.90;;;;;;5068390;28;20191;-72
2023/12/24 12:42:55;;;;;;;0.70;0.40;;;10.60;99.90;;;;;;5069820;28;20203;-72
2023/12/24 12:45:22;;;;;;;0.80;0.50;;;10.60;99.90;;;;;;5067820;28;20484;-72
2023/12/24 12:47:48;;;;;;;0.70;0.40;;;10.70;99.90;;;;;;5068519;28;20449;-71
2023/12/24 12:50:14;;;;;;;1.00;0.40;;;10.60;99.90;;;;;;5069634;28;20421;-72
2023/12/24 12:52:39;;;;;;;1.47;0.50;;;10.60;99.90;;;;;;5069742;28;21326;-72